Accueil
METAR-TAF:

METAR-TAF

Aéroports :

Angers, France

Angers Loire Aéroport

latitude: 47-33-37N, longitude: 000-18-44W, altitude: 59 m

Observation

Le bulletin a été fait il y a 29 minutes, à 01:30 UTC
Vent 5 kt de ouest/sud-ouest
Température 15°C
Humidité 88%
Pression 1021 hPa
Visibilité 10 km ou plus
Ciel couvert à une hauteur de 4000 ft

METAR: LFJR 240130Z AUTO 25005KT 9999 OVC040 15/13 Q1021

Heure: 03:59 (01:59 UTC)

Prévision

Le bulletin a été fait il y a 14 heures et 59 minutes, à 11:00 UTC
Prévision valable du 23 à 12 UTC au 23 à 21 UTC
Vent 10 kt de ouest
Visibilité 10 km ou plus
Nuages épars à une hauteur de 3500 ft

TAF: LFJR 231100Z 2312/2321 27010KT 9999 SCT035

Observations et prévisions météorologiques de plus de 4000 aéroports (messages METAR et TAF).

Les stations disponibles sont représentées par des disques jaunes et rouges sur la carte.

Passer la souris dessus pour voir le nom de la station.

Cliquer dessus pour voir les observations et prévisions météorologiques.

Pour changer de carte: cliquez sur les boutons verts avec une croix noire pour zoomer, sur le bouton vert avec un tiret pour effectuer un zoom arrière, ou sur les flèches vertes pour les cartes adjacentes.


METAR-TAF: